.
WxDataArchive / Data Records for 2013-12-20
2013-12-19 December 2013 2013-12-21

Data Records for Friday, 20 December 2013

Time	Temp	Chill	HIndex	Humid	Dewpt	 Wind 	HiWind	WindDir	Rain 	Barom 
-----	----	-----	------	-----	-----	------	------	-------	-----	----- 
00:00	40.8	40.8	40.8	84	36.3	0	1	135	0.00	29.862 
00:05	40.9	40.9	40.9	83	36.1	0	1	135	0.00	29.862 
00:10	40.9	40.9	40.9	83	36.1	0	1	135	0.00	29.862 
00:15	40.9	40.9	40.9	83	36.1	0	1	135	0.00	29.859 
00:20	41.1	41.1	41.1	83	36.3	0	1	135	0.00	29.859 
00:25	41.1	41.1	41.1	83	36.3	0	1	135	0.00	29.859 
00:30	41.1	41.1	41.1	83	36.3	0	1	135	0.00	29.855 
00:35	41.1	41.1	41.1	83	36.3	0	1	135	0.00	29.855 
00:40	41.1	41.1	41.1	83	36.3	0	1	135	0.00	29.855 
00:45	41.1	41.1	41.1	83	36.3	0	1	135	0.00	29.845 
00:50	41.1	41.1	41.1	83	36.3	0	1	135	0.01	29.845 
00:55	41.1	41.1	41.1	84	36.6	0	0	---	0.00	29.845 
01:00	41.2	41.2	41.2	84	36.7	0	1	135	0.00	29.838 
01:05	41.2	41.2	41.2	84	36.7	0	1	135	0.00	29.838 
01:10	41.2	41.2	41.2	84	36.7	0	2	135	0.00	29.838 
01:15	41.3	41.3	41.3	84	36.8	0	1	135	0.00	29.831 
01:20	41.3	41.3	41.3	84	36.8	0	1	135	0.00	29.831 
01:25	41.3	41.3	41.3	84	36.8	0	1	135	0.00	29.831 
01:30	41.3	41.3	41.3	84	36.8	0	0	---	0.00	29.830 
01:35	41.3	41.3	41.3	85	37.1	0	1	135	0.00	29.830 
01:40	41.3	41.3	41.3	85	37.1	0	0	---	0.00	29.830 
01:45	41.5	41.5	41.5	86	37.6	0	1	135	0.00	29.829 
01:50	41.6	41.6	41.6	86	37.7	0	1	135	0.00	29.829 
01:55	41.8	41.8	41.8	87	38.2	0	1	135	0.00	29.829 
02:00	41.8	41.8	41.8	87	38.2	0	1	180	0.00	29.829 
02:05	41.8	41.8	41.8	87	38.2	0	1	180	0.00	29.829 
02:10	41.8	41.8	41.8	88	38.5	0	0	---	0.00	29.829 
02:15	41.6	41.6	41.6	88	38.3	0	0	---	0.00	29.830 
02:20	41.5	41.5	41.5	88	38.2	0	0	---	0.00	29.830 
02:25	41.2	41.2	41.2	88	37.9	0	0	---	0.00	29.830 
02:30	41.1	41.1	41.1	88	37.8	0	0	---	0.00	29.831 
02:35	40.9	40.9	40.9	89	37.9	0	0	---	0.00	29.831 
02:40	40.9	40.9	40.9	89	37.9	0	1	180	0.01	29.831 
02:45	41.1	41.1	41.1	90	38.4	0	1	180	0.00	29.830 
02:50	41.1	41.1	41.1	90	38.4	0	1	180	0.00	29.830 
02:55	41.1	41.1	41.1	90	38.4	0	1	180	0.00	29.830 
03:00	41.1	41.1	41.1	91	38.7	0	0	---	0.00	29.826 
03:05	41.1	41.1	41.1	91	38.7	0	1	180	0.00	29.826 
03:10	41.2	41.2	41.2	91	38.8	0	0	---	0.00	29.826 
03:15	41.2	41.2	41.2	91	38.8	0	1	180	0.00	29.829 
03:20	41.3	41.3	41.3	92	39.2	0	1	180	0.00	29.829 
03:25	41.5	41.5	41.5	92	39.4	0	1	180	0.00	29.829 
03:30	41.8	41.8	41.8	92	39.6	0	1	180	0.01	29.820 
03:35	41.9	41.9	41.9	92	39.7	0	2	158	0.00	29.820 
03:40	42.1	42.1	42.1	92	39.9	0	1	158	0.01	29.820 
03:45	42.1	42.1	42.1	92	39.9	0	1	180	0.00	29.816 
03:50	41.9	41.9	41.9	92	39.7	0	1	180	0.00	29.816 
03:55	41.9	41.9	41.9	92	39.7	0	1	180	0.00	29.816 
04:00	42.1	42.1	42.1	93	40.2	0	3	112	0.00	29.815 
04:05	42.1	42.1	42.1	93	40.2	0	2	112	0.00	29.815 
04:10	42.1	42.1	42.1	93	40.2	0	2	112	0.00	29.815 
04:15	42.2	42.2	42.2	93	40.3	0	2	248	0.01	29.814 
04:20	42.2	42.2	42.2	93	40.3	0	4	248	0.00	29.814 
04:25	42.2	42.2	42.2	93	40.3	0	1	248	0.00	29.814 
04:30	42.2	42.2	42.2	94	40.6	0	1	248	0.00	29.806 
04:35	42.3	42.3	42.3	94	40.7	0	2	248	0.00	29.806 
04:40	42.3	42.3	42.3	94	40.7	0	3	248	0.00	29.806 
04:45	42.3	42.3	42.3	94	40.7	0	3	248	0.00	29.800 
04:50	42.3	42.3	42.3	94	40.7	0	2	90	0.00	29.800 
04:55	42.2	42.2	42.2	94	40.6	0	3	90	0.00	29.800 
05:00	42.2	42.2	42.2	94	40.6	0	2	90	0.00	29.798 
05:05	42.3	42.3	42.3	94	40.7	0	2	90	0.00	29.798 
05:10	42.5	42.5	42.5	94	40.9	1	5	135	0.00	29.798 
05:15	42.5	42.5	42.5	94	40.9	1	4	135	0.00	29.788 
05:20	42.6	42.6	42.6	94	41.0	0	3	68	0.01	29.788 
05:25	42.6	42.6	42.6	95	41.3	0	3	338	0.00	29.788 
05:30	42.5	42.5	42.5	95	41.2	0	2	338	0.00	29.785 
05:35	42.6	42.6	42.6	95	41.3	0	3	315	0.00	29.785 
05:40	42.8	42.8	42.8	95	41.5	1	5	315	0.00	29.785 
05:45	42.8	42.8	42.8	95	41.5	0	2	22	0.00	29.784 
05:50	42.8	42.8	42.8	95	41.5	0	3	22	0.00	29.784 
05:55	42.8	42.8	42.8	95	41.5	1	4	68	0.00	29.784 
06:00	42.8	42.8	42.8	95	41.5	0	4	68	0.00	29.784 
06:05	42.8	42.8	42.8	95	41.5	1	3	270	0.00	29.784 
06:10	42.6	42.6	42.6	95	41.3	0	2	270	0.00	29.784 
06:15	42.6	42.6	42.6	95	41.3	0	1	270	0.00	29.784 
06:20	42.6	42.6	42.6	95	41.3	0	2	270	0.00	29.784 
06:25	42.6	42.6	42.6	95	41.3	0	2	270	0.00	29.784 
06:30	42.6	42.6	42.6	95	41.3	0	2	270	0.00	29.786 
06:35	42.6	42.6	42.6	95	41.3	0	3	270	0.00	29.786 
06:40	42.6	42.6	42.6	95	41.3	0	3	270	0.01	29.786 
06:45	42.8	42.8	42.8	95	41.5	0	3	248	0.00	29.786 
06:50	42.6	42.6	42.6	95	41.3	0	3	248	0.00	29.786 
06:55	42.8	42.8	42.8	95	41.5	0	2	248	0.00	29.786 
07:00	42.8	42.8	42.8	95	41.5	0	1	248	0.00	29.785 
07:05	42.8	42.8	42.8	95	41.5	0	1	248	0.00	29.785 
07:10	42.6	42.6	42.6	95	41.3	0	2	248	0.00	29.785 
07:15	42.6	42.6	42.6	95	41.3	0	1	248	0.01	29.787 
07:20	42.5	42.5	42.5	95	41.2	0	2	248	0.00	29.787 
07:25	42.5	42.5	42.5	95	41.2	0	2	248	0.00	29.787 
07:30	42.5	42.5	42.5	95	41.2	0	3	248	0.00	29.788 
07:35	42.6	42.6	42.6	95	41.3	0	2	248	0.01	29.788 
07:40	42.8	42.8	42.8	95	41.5	0	1	248	0.00	29.788 
07:45	42.8	42.8	42.8	95	41.5	0	3	248	0.00	29.786 
07:50	42.9	42.9	42.9	95	41.6	0	2	248	0.00	29.786 
07:55	42.9	42.9	42.9	95	41.6	0	3	248	0.00	29.786 
08:00	42.9	42.9	42.9	95	41.6	0	1	248	0.00	29.787 
08:05	42.9	42.9	42.9	96	41.8	0	2	248	0.00	29.787 
08:10	42.9	42.9	42.9	95	41.6	0	1	248	0.00	29.787 
08:15	42.9	42.9	42.9	95	41.6	0	2	248	0.00	29.789 
08:20	43.1	43.1	43.1	96	42.0	0	1	248	0.00	29.789 
08:25	43.1	43.1	43.1	96	42.0	0	2	248	0.00	29.789 
08:30	43.1	43.1	43.1	96	42.0	0	2	248	0.00	29.791 
08:35	43.1	43.1	43.1	96	42.0	0	1	248	0.00	29.791 
08:40	43.2	43.2	43.2	96	42.1	0	2	248	0.00	29.791 
08:45	43.3	43.3	43.3	96	42.2	0	3	248	0.01	29.788 
08:50	43.3	43.3	43.3	96	42.2	0	3	248	0.00	29.788 
08:55	43.3	43.3	43.3	96	42.2	0	1	248	0.00	29.788 
09:00	43.3	43.3	43.3	96	42.2	0	2	248	0.00	29.790 
09:05	43.5	43.5	43.5	96	42.4	0	3	248	0.00	29.790 
09:10	43.5	43.5	43.5	96	42.4	0	2	248	0.00	29.790 
09:15	43.5	43.5	43.5	96	42.4	0	1	248	0.00	29.787 
09:20	43.5	43.5	43.5	96	42.4	0	1	248	0.00	29.787 
09:25	43.5	43.5	43.5	96	42.4	0	1	248	0.00	29.787 
09:30	43.5	43.5	43.5	96	42.4	0	1	248	0.00	29.787 
09:35	43.5	43.5	43.5	96	42.4	0	1	248	0.00	29.787 
09:40	43.6	43.6	43.6	96	42.5	0	3	248	0.00	29.787 
09:45	43.8	43.8	43.8	96	42.7	0	2	248	0.00	29.793 
09:50	43.9	43.9	43.9	96	42.8	0	3	248	0.00	29.793 
09:55	44.1	44.1	44.1	96	43.0	0	2	248	0.00	29.793 
10:00	44.1	44.1	44.1	96	43.0	0	2	248	0.00	29.799 
10:05	44.2	44.2	44.2	96	43.1	0	2	248	0.00	29.799 
10:10	44.3	44.3	44.3	96	43.2	0	2	248	0.00	29.799 
10:15	44.6	44.6	44.6	96	43.5	0	3	248	0.00	29.801 
10:20	44.5	44.5	44.5	96	43.4	0	1	248	0.00	29.801 
10:25	44.5	44.5	44.5	96	43.4	0	1	248	0.00	29.801 
10:30	44.6	44.6	44.6	96	43.5	0	3	248	0.00	29.805 
10:35	44.8	44.8	44.8	96	43.7	0	1	270	0.00	29.805 
10:40	44.9	44.9	44.9	96	43.8	0	2	270	0.01	29.805 
10:45	45.1	45.1	45.1	96	44.0	0	2	270	0.01	29.801 
10:50	45.2	45.2	45.2	96	44.1	0	1	270	0.00	29.801 
10:55	45.1	45.1	45.1	96	44.0	0	1	270	0.01	29.801 
11:00	45.1	45.1	45.1	96	44.0	0	1	270	0.00	29.798 
11:05	45.2	45.2	45.2	96	44.1	0	1	270	0.00	29.798 
11:10	45.1	45.1	45.1	96	44.0	0	2	270	0.00	29.798 
11:15	45.1	45.1	45.1	96	44.0	0	2	270	0.00	29.794 
11:20	45.2	45.2	45.2	96	44.1	0	1	270	0.00	29.794 
11:25	45.4	45.4	45.4	96	44.3	0	3	270	0.00	29.794 
11:30	45.5	45.5	45.5	96	44.4	0	1	270	0.00	29.792 
11:35	45.7	45.7	45.7	96	44.6	0	2	270	0.00	29.792 
11:40	45.7	45.7	45.7	96	44.6	0	3	270	0.00	29.792 
11:45	45.8	45.8	45.8	96	44.7	0	2	68	0.00	29.780 
11:50	45.8	45.8	45.8	96	44.7	0	2	68	0.00	29.780 
11:55	45.8	45.8	45.8	96	44.7	0	1	68	0.00	29.780 
12:00	46.0	46.0	46.0	96	44.9	0	1	68	0.00	29.773 
12:05	46.1	46.1	46.1	96	45.0	0	3	270	0.01	29.773 
12:10	46.2	46.2	46.2	96	45.1	0	3	248	0.00	29.773 
12:15	46.2	46.2	46.2	96	45.1	0	1	248	0.00	29.764 
12:20	46.1	46.1	46.1	96	45.0	0	2	248	0.00	29.764 
12:25	46.4	46.4	46.4	96	45.3	0	2	315	0.00	29.764 
12:30	46.4	46.4	46.4	96	45.3	0	2	315	0.00	29.754 
12:35	46.5	46.5	46.5	96	45.4	0	5	315	0.00	29.754 
12:40	46.5	46.5	46.5	96	45.4	0	2	338	0.00	29.754 
12:45	46.5	46.5	46.5	96	45.4	0	3	338	0.00	29.744 
12:50	46.5	46.5	46.5	96	45.4	0	2	338	0.00	29.744 
12:55	46.7	46.7	46.7	96	45.6	0	3	338	0.00	29.744 
13:00	46.7	46.7	46.7	96	45.6	0	2	248	0.00	29.735 
13:05	46.7	46.7	46.7	96	45.6	0	4	270	0.00	29.735 
13:10	46.7	46.7	46.7	96	45.6	0	1	68	0.00	29.735 
13:15	46.7	46.7	46.7	96	45.6	0	2	68	0.00	29.732 
13:20	46.7	46.7	46.7	96	45.6	0	2	68	0.00	29.732 
13:25	46.7	46.7	46.7	96	45.6	0	3	68	0.00	29.732 
13:30	46.8	46.8	46.8	96	45.7	0	3	315	0.00	29.719 
13:35	46.8	46.8	46.8	96	45.7	1	5	0	0.00	29.719 
13:40	47.0	47.0	47.0	96	45.9	0	2	270	0.01	29.719 
13:45	47.3	47.3	47.3	96	46.2	0	2	270	0.00	29.718 
13:50	47.3	47.3	47.3	96	46.2	0	2	270	0.00	29.718 
13:55	47.4	47.4	47.4	96	46.3	1	4	270	0.00	29.718 
14:00	47.7	47.7	47.7	96	46.6	0	5	248	0.00	29.718 
14:05	47.9	47.9	47.9	96	46.8	0	2	248	0.00	29.718 
14:10	48.0	48.0	48.0	96	46.9	0	2	248	0.00	29.718 
14:15	48.2	48.2	48.2	96	47.1	1	3	248	0.00	29.717 
14:20	48.2	48.2	48.2	96	47.1	0	1	248	0.00	29.717 
14:25	48.3	48.3	48.3	96	47.2	1	4	248	0.00	29.717 
14:30	48.6	48.6	48.6	96	47.5	0	3	248	0.01	29.715 
14:35	48.8	48.8	48.8	96	47.7	1	3	248	0.00	29.715 
14:40	48.9	48.9	48.9	96	47.8	1	5	248	0.00	29.715 
14:45	48.9	48.9	48.9	96	47.8	1	4	45	0.00	29.713 
14:50	49.1	49.1	49.1	96	48.0	1	3	248	0.01	29.713 
14:55	49.2	49.2	49.2	96	48.1	1	3	248	0.00	29.713 
15:00	49.4	49.4	49.4	96	48.3	0	2	248	0.00	29.701 
15:05	49.2	49.2	49.2	96	48.1	0	2	248	0.00	29.701 
15:10	49.2	49.2	49.2	96	48.1	0	2	248	0.01	29.701 
15:15	49.5	49.5	49.5	96	48.4	1	3	248	0.00	29.711 
15:20	49.5	49.5	49.5	96	48.4	1	3	248	0.00	29.711 
15:25	49.6	49.6	49.6	96	48.5	0	2	248	0.00	29.711 
15:30	49.6	49.6	49.6	96	48.5	1	3	270	0.00	29.713 
15:35	49.8	49.8	49.8	96	48.7	1	6	248	0.00	29.713 
15:40	49.8	49.8	49.8	96	48.7	0	2	248	0.00	29.713 
15:45	49.9	49.9	49.9	96	48.8	1	3	248	0.00	29.712 
15:50	50.1	50.1	50.1	96	49.0	1	2	22	0.00	29.712 
15:55	50.1	50.1	50.1	96	49.0	0	3	248	0.00	29.712 
16:00	50.1	50.1	50.1	96	49.0	0	4	248	0.00	29.713 
16:05	49.9	49.9	49.9	96	48.8	0	3	225	0.00	29.713 
16:10	50.1	50.1	50.1	96	49.0	0	4	248	0.00	29.713 
16:15	50.1	50.1	50.1	96	49.0	0	2	270	0.00	29.713 
16:20	50.2	50.2	50.2	96	49.1	0	2	270	0.00	29.713 
16:25	50.2	50.2	50.2	96	49.1	0	2	270	0.00	29.713 
16:30	50.4	50.4	50.4	96	49.3	0	2	270	0.00	29.708 
16:35	50.4	50.4	50.4	96	49.3	0	3	270	0.00	29.708 
16:40	50.5	50.5	50.5	96	49.4	0	3	270	0.00	29.708 
16:45	50.5	50.5	50.5	96	49.4	1	4	270	0.00	29.713 
16:50	50.7	50.7	50.7	96	49.6	0	4	270	0.00	29.713 
16:55	50.7	50.7	50.7	96	49.6	0	4	270	0.00	29.713 
17:00	50.7	50.7	50.7	96	49.6	0	4	45	0.00	29.716 
17:05	50.8	50.8	50.8	96	49.7	0	3	270	0.00	29.716 
17:10	50.8	50.8	50.8	96	49.7	1	3	292	0.00	29.716 
17:15	50.8	50.8	50.8	97	50.0	1	4	270	0.00	29.715 
17:20	51.0	51.0	51.0	97	50.2	0	2	270	0.00	29.715 
17:25	51.0	51.0	51.0	97	50.2	0	2	270	0.00	29.715 
17:30	51.0	51.0	51.0	97	50.2	0	3	292	0.00	29.710 
17:35	51.1	51.1	51.1	97	50.3	1	5	292	0.00	29.710 
17:40	51.1	51.1	51.1	97	50.3	0	4	248	0.01	29.710 
17:45	51.3	51.3	51.3	97	50.5	1	3	315	0.00	29.714 
17:50	51.4	51.4	51.4	97	50.6	1	3	270	0.00	29.714 
17:55	51.4	51.4	51.4	97	50.6	1	4	270	0.00	29.714 
18:00	51.4	51.4	51.4	97	50.6	0	3	270	0.00	29.720 
18:05	51.6	51.6	51.6	97	50.8	1	3	270	0.00	29.720 
18:10	51.7	51.7	51.7	97	50.9	0	4	248	0.00	29.720 
18:15	51.7	51.7	51.7	97	50.9	0	3	248	0.00	29.723 
18:20	51.7	51.7	51.7	97	50.9	1	4	248	0.00	29.723 
18:25	51.9	51.9	51.9	97	51.1	1	4	90	0.00	29.723 
18:30	52.0	52.0	52.0	97	51.2	0	4	248	0.00	29.726 
18:35	52.0	52.0	52.0	97	51.2	0	3	248	0.00	29.726 
18:40	52.0	52.0	52.0	97	51.2	1	3	270	0.00	29.726 
18:45	52.2	52.2	52.2	97	51.4	0	3	248	0.00	29.725 
18:50	52.2	52.2	52.2	97	51.4	0	2	248	0.00	29.725 
18:55	52.2	52.2	52.2	97	51.4	0	3	248	0.00	29.725 
19:00	52.2	52.2	52.2	97	51.4	0	1	248	0.00	29.724 
19:05	52.2	52.2	52.2	97	51.4	0	3	248	0.00	29.724 
19:10	52.3	52.3	52.3	97	51.5	0	2	248	0.00	29.724 
19:15	52.3	52.3	52.3	97	51.5	0	2	270	0.00	29.711 
19:20	52.5	52.5	52.5	97	51.7	0	4	270	0.01	29.711 
19:25	52.6	52.6	52.6	97	51.8	0	3	248	0.00	29.711 
19:30	52.8	52.8	52.8	97	52.0	0	3	270	0.00	29.713 
19:35	52.9	52.9	52.9	97	52.1	0	5	315	0.00	29.713 
19:40	53.1	53.1	53.1	97	52.3	0	3	248	0.00	29.713 
19:45	53.2	53.2	53.2	97	52.4	0	4	248	0.00	29.723 
19:50	53.3	53.3	53.3	97	52.5	0	4	248	0.00	29.723 
19:55	53.5	53.5	53.5	97	52.7	1	3	248	0.00	29.723 
20:00	53.6	53.6	53.6	97	52.8	1	4	248	0.00	29.723 
20:05	53.8	53.8	53.8	97	53.0	1	5	270	0.00	29.723 
20:10	53.8	53.8	53.8	97	53.0	1	4	248	0.00	29.723 
20:15	53.8	53.8	53.8	97	53.0	0	3	248	0.00	29.724 
20:20	53.8	53.8	53.8	97	53.0	1	6	248	0.00	29.724 
20:25	53.6	53.6	53.6	97	52.8	0	2	292	0.00	29.724 
20:30	53.3	53.3	53.3	97	52.5	0	3	292	0.00	29.730 
20:35	53.3	53.3	53.3	97	52.5	0	4	292	0.00	29.730 
20:40	53.5	53.5	53.5	97	52.7	1	3	248	0.00	29.730 
20:45	53.6	53.6	53.6	97	52.8	1	5	248	0.00	29.713 
20:50	53.8	53.8	53.8	97	53.0	1	5	248	0.00	29.713 
20:55	53.9	53.9	53.9	97	53.1	1	3	248	0.00	29.713 
21:00	53.9	53.9	53.9	97	53.1	0	2	248	0.00	29.715 
21:05	53.9	53.9	53.9	97	53.1	0	3	248	0.00	29.715 
21:10	53.9	53.9	53.9	97	53.1	0	3	248	0.00	29.715 
21:15	53.9	53.9	53.9	97	53.1	0	2	248	0.00	29.711 
21:20	53.9	53.9	53.9	97	53.1	1	3	248	0.00	29.711 
21:25	53.9	53.9	53.9	97	53.1	0	3	248	0.00	29.711 
21:30	53.9	53.9	53.9	97	53.1	0	3	248	0.00	29.708 
21:35	54.1	54.1	54.1	97	53.3	1	3	248	0.00	29.708 
21:40	54.1	54.1	54.1	97	53.3	0	1	248	0.00	29.708 
21:45	54.2	54.2	54.2	97	53.4	0	2	248	0.00	29.710 
21:50	54.2	54.2	54.2	97	53.4	0	3	248	0.00	29.710 
21:55	54.2	54.2	54.2	97	53.4	0	2	248	0.00	29.710 
22:00	54.4	54.4	54.4	97	53.6	1	3	248	0.00	29.713 
22:05	54.4	54.4	54.4	97	53.6	0	1	248	0.00	29.713 
22:10	54.4	54.4	54.4	97	53.6	1	3	248	0.00	29.713 
22:15	54.5	54.5	54.5	97	53.7	1	3	248	0.00	29.717 
22:20	54.7	54.7	54.7	97	53.9	0	2	248	0.00	29.717 
22:25	54.7	54.7	54.7	97	53.9	1	4	248	0.00	29.717 
22:30	54.8	54.8	54.8	97	54.0	1	4	248	0.00	29.715 
22:35	54.8	54.8	54.8	97	54.0	1	4	248	0.00	29.715 
22:40	55.0	55.0	55.0	97	54.2	1	4	248	0.00	29.715 
22:45	55.0	55.0	55.0	97	54.2	0	3	248	0.00	29.720 
22:50	55.0	55.0	55.0	97	54.2	1	3	225	0.00	29.720 
22:55	55.0	55.0	55.0	97	54.2	1	3	248	0.00	29.720 
23:00	54.8	54.8	54.8	97	54.0	1	3	248	0.00	29.714 
23:05	55.0	55.0	55.0	97	54.2	2	7	248	0.00	29.714 
23:10	55.0	55.0	55.0	97	54.2	2	7	248	0.00	29.714 
23:15	54.8	54.8	54.8	97	54.0	1	4	248	0.00	29.711 
23:20	54.7	54.7	54.7	97	53.9	0	3	248	0.00	29.711 
23:25	54.7	54.7	54.7	97	53.9	0	2	248	0.00	29.711 
23:30	54.5	54.5	54.5	97	53.7	0	3	248	0.00	29.715 
23:35	54.5	54.5	54.5	97	53.7	1	4	270	0.00	29.715 
23:40	54.4	54.4	54.4	97	53.6	1	4	270	0.00	29.715 
23:45	54.2	54.2	54.2	96	53.1	0	3	270	0.00	29.709 
23:50	54.1	54.1	54.1	96	53.0	1	4	270	0.00	29.709 
23:55	54.1	54.1	54.1	96	53.0	1	4	270	0.00	29.709 

CoCoRaHS
IN-AL-39
A2 Web Hosting
Creative Commons License
GoDaddy
search engine by freefind advanced

loaded 2018-11-16 23:49:38 • last modified 2010-11-18 10:43:29
Privacy PolicyDisclaimer
• wx.awcolley.com is powered by PmWiki v.2002016 •
• all content (unless otherwise noted) © 2018 A W Colley